Time;durP1;ratioP1;P1;durP2;ratioP2;P2;SDS_P1;SDS_P2;PMS_P1;PMS_P2;Temp;Humidity;BMP_temperature;BMP_pressure;BME280_temperature;BME280_humidity;BME280_pressure;Samples;Min_cycle;Max_cycle;Signal;HPM_P1;HPM_P2
2022/09/09 00:00:50;;;;;;;8.07;1.30;;;;;;;-145.69;100.00;71366.56;5075669;28;20199;-77
2022/09/09 00:03:20;;;;;;;7.20;1.20;;;;;;;-145.69;100.00;71346.69;5074536;28;20282;-76
2022/09/09 00:05:56;;;;;;;6.97;1.03;;;;;;;-145.69;100.00;71350.66;5073698;28;20779;-75
2022/09/09 00:08:34;;;;;;;2.60;1.13;;;;;;;-145.69;100.00;71354.63;5075310;28;20206;-77
2022/09/09 00:11:06;;;;;;;5.40;1.07;;;;;;;-145.69;100.00;71358.63;5075341;28;20198;-76
2022/09/09 00:13:37;;;;;;;5.37;1.20;;;;;;;-145.69;100.00;71354.63;5075064;28;20237;-76
2022/09/09 00:16:13;;;;;;;4.80;1.00;;;;;;;-145.69;100.00;71356.63;5074562;28;20610;-76
2022/09/09 00:18:53;;;;;;;7.33;1.37;;;;;;;-145.69;100.00;71342.69;5074894;28;20202;-77
2022/09/09 00:21:25;;;;;;;5.50;1.30;;;;;;;-145.69;100.00;71316.84;5074692;28;20662;-76
2022/09/09 00:23:54;;;;;;;1.87;1.20;;;;;;;-145.69;100.00;71322.81;5075475;28;20198;-76
2022/09/09 00:26:29;;;;;;;3.10;0.97;;;;;;;-145.69;100.00;71314.84;5075295;28;20234;-76
2022/09/09 00:29:05;;;;;;;6.53;1.20;;;;;;;-145.69;100.00;71306.88;5075256;28;20248;-76
2022/09/09 00:31:33;;;;;;;7.07;1.57;;;;;;;-145.69;100.00;71318.81;5074007;28;20668;-76
2022/09/09 00:34:09;;;;;;;8.13;1.30;;;;;;;-145.69;100.00;71326.78;5074975;28;20230;-76
2022/09/09 00:36:37;;;;;;;2.93;1.37;;;;;;;-145.69;100.00;71330.75;5074116;28;20214;-75
2022/09/09 00:39:05;;;;;;;2.97;1.00;;;;;;;-145.69;100.00;71330.75;5074435;28;20195;-75
2022/09/09 00:41:46;;;;;;;4.93;1.70;;;;;;;-145.69;100.00;71326.78;5074734;28;20669;-76
2022/09/09 00:44:23;;;;;;;3.57;0.93;;;;;;;-145.69;100.00;71306.88;5075091;28;20212;-76
2022/09/09 00:47:10;;;;;;;5.53;1.20;;;;;;;-145.69;100.00;71306.88;5074925;28;20221;-76
2022/09/09 00:49:47;;;;;;;8.33;1.40;;;;;;;-145.69;100.00;71312.84;5074376;28;20727;-76
2022/09/09 00:52:28;;;;;;;5.30;1.17;;;;;;;-145.69;100.00;71320.81;5074940;28;20241;-76
2022/09/09 00:55:03;;;;;;;1.90;0.90;;;;;;;-145.69;100.00;71330.75;5064176;28;20227;-75
2022/09/09 00:57:32;;;;;;;4.87;1.13;;;;;;;-145.69;100.00;71336.72;5071209;28;20434;-76
2022/09/09 01:00:05;;;;;;;3.73;0.97;;;;;;;-145.69;100.00;71342.69;5074635;28;20203;-76
2022/09/09 01:02:41;;;;;;;4.03;1.20;;;;;;;-145.69;100.00;71342.69;5074418;28;20636;-75
2022/09/09 01:05:14;;;;;;;4.10;1.17;;;;;;;-145.69;100.00;71346.69;5074472;28;20561;-76
2022/09/09 01:07:48;;;;;;;5.03;1.00;;;;;;;-145.69;100.00;71348.66;5073375;28;20202;-77
2022/09/09 01:10:27;;;;;;;7.33;1.47;;;;;;;-145.69;100.00;71372.53;5074344;28;20199;-75
2022/09/09 01:12:56;;;;;;;4.17;1.30;;;;;;;-145.69;100.00;71390.47;5054587;28;20203;-77
2022/09/09 01:15:27;;;;;;;7.63;1.30;;;;;;;-145.69;100.00;71386.47;5054469;28;20203;-77
2022/09/09 01:18:02;;;;;;;5.73;1.00;;;;;;;-145.69;100.00;71370.56;5053219;28;20662;-76
2022/09/09 01:20:39;;;;;;;8.93;1.40;;;;;;;-145.69;100.00;71390.47;5054292;28;20194;-76
2022/09/09 01:23:21;;;;;;;8.00;1.40;;;;;;;-145.69;100.00;71382.50;5054306;28;20210;-76
2022/09/09 01:26:21;;;;;;;5.33;1.30;;;;;;;-145.69;100.00;71394.44;5057273;28;20195;-76
2022/09/09 01:28:52;;;;;;;8.40;1.27;;;;;;;-145.69;100.00;71418.31;5073144;28;20653;-77
2022/09/09 01:31:22;;;;;;;4.40;1.27;;;;;;;-145.69;100.00;71430.25;5074346;28;20191;-76
2022/09/09 01:33:49;;;;;;;11.97;1.40;;;;;;;-145.69;100.00;71442.19;5073839;28;20236;-75
2022/09/09 01:36:22;;;;;;;8.77;1.60;;;;;;;-145.69;100.00;71380.50;5074023;28;20203;-75
2022/09/09 01:38:49;;;;;;;4.27;1.20;;;;;;;-145.69;100.00;71386.47;5072794;28;20198;-75
2022/09/09 01:41:15;;;;;;;2.60;1.37;;;;;;;-145.69;100.00;71382.50;5073309;28;20198;-76
2022/09/09 01:43:42;;;;;;;7.43;1.40;;;;;;;-145.69;100.00;71364.59;5072799;28;20218;-76
2022/09/09 01:46:12;;;;;;;6.63;1.40;;;;;;;-145.69;100.00;71318.81;5072780;28;20198;-76
2022/09/09 01:48:41;;;;;;;9.83;1.53;;;;;;;-145.69;100.00;71316.84;5072899;28;20209;-76
2022/09/09 01:51:10;;;;;;;7.53;1.40;;;;;;;-145.69;100.00;71302.91;5071048;28;20230;-76
2022/09/09 01:53:36;;;;;;;2.77;0.90;;;;;;;-145.69;100.00;71271.06;5072658;28;20254;-76
2022/09/09 01:56:14;;;;;;;7.63;1.27;;;;;;;-145.69;100.00;71265.09;5072097;28;20727;-76
2022/09/09 01:58:51;;;;;;;9.87;1.40;;;;;;;-145.69;100.00;71263.09;5072966;28;20202;-76
2022/09/09 02:01:35;;;;;;;5.30;1.40;;;;;;;-145.69;100.00;71223.31;5073301;28;20198;-75
2022/09/09 02:04:09;;;;;;;3.30;1.27;;;;;;;-145.69;100.00;71201.41;5071537;28;21003;-75
2022/09/09 02:06:38;;;;;;;5.28;1.42;;;;;;;-145.69;100.00;71187.50;5073430;28;20206;-75
2022/09/09 02:09:08;;;;;;;1.20;0.70;;;;;;;-145.69;100.00;71175.56;5073650;28;20205;-76
2022/09/09 02:11:36;;;;;;;4.88;1.15;;;;;;;-145.69;100.00;71179.53;5073510;28;20440;-76
2022/09/09 02:14:09;;;;;;;6.87;1.10;;;;;;;-145.69;100.00;71183.50;5072598;28;20254;-75
2022/09/09 02:16:41;;;;;;;2.07;0.93;;;;;;;-145.69;100.00;71181.53;5072688;28;20199;-76
2022/09/09 02:19:13;;;;;;;3.92;1.10;;;;;;;-145.69;100.00;71179.53;5072463;28;20195;-76
2022/09/09 02:21:42;;;;;;;3.05;1.15;;;;;;;-145.69;100.00;71143.72;5071968;28;20676;-76
2022/09/09 02:24:12;;;;;;;2.60;1.15;;;;;;;-145.69;100.00;71141.72;5072898;28;20203;-75
2022/09/09 02:26:41;;;;;;;2.00;0.80;;;;;;;-145.69;100.00;71131.78;5072187;28;20203;-75
2022/09/09 02:29:13;;;;;;;1.83;0.90;;;;;;;-145.69;100.00;71141.72;5071119;28;20215;-75
2022/09/09 02:31:45;;;;;;;8.40;1.27;;;;;;;-145.69;100.00;71151.69;5072564;28;20645;-76
2022/09/09 02:34:14;;;;;;;5.93;1.17;;;;;;;-145.69;100.00;71147.69;5072811;28;20230;-77
2022/09/09 02:36:45;;;;;;;5.78;1.30;;;;;;;-145.69;100.00;71139.75;5073109;28;20202;-76
2022/09/09 02:39:12;;;;;;;5.93;1.00;;;;;;;-145.69;100.00;71125.81;5073171;28;20199;-77
2022/09/09 02:41:41;;;;;;;6.28;1.02;;;;;;;-145.69;100.00;71121.84;5072852;28;20198;-77
2022/09/09 02:44:11;;;;;;;6.32;1.00;;;;;;;-145.69;100.00;71139.75;5072813;28;20194;-76
2022/09/09 02:47:04;;;;;;;9.98;1.25;;;;;;;-145.69;100.00;71137.75;5073029;28;20203;-77
2022/09/09 02:49:41;;;;;;;7.82;1.08;;;;;;;-145.69;100.00;71139.75;5072215;28;20533;-76
2022/09/09 02:52:15;;;;;;;7.57;1.13;;;;;;;-145.69;100.00;71147.69;5072858;28;20198;-77
2022/09/09 02:54:43;;;;;;;2.78;0.88;;;;;;;-145.69;100.00;71177.53;5072478;28;20254;-76
2022/09/09 02:57:12;;;;;;;4.83;0.80;;;;;;;-145.69;100.00;71193.47;5065744;28;20716;-76
2022/09/09 02:59:41;;;;;;;5.45;1.05;;;;;;;-145.69;100.00;71213.38;5052757;28;20222;-76
2022/09/09 03:02:09;;;;;;;3.53;0.90;;;;;;;-145.69;100.00;71223.31;5052650;28;20672;-76
2022/09/09 03:04:36;;;;;;;3.35;1.17;;;;;;;-145.69;100.00;71243.22;5052739;28;20203;-76
2022/09/09 03:07:03;;;;;;;1.92;1.00;;;;;;;-145.69;100.00;71211.38;5052538;28;20210;-77
2022/09/09 03:09:29;;;;;;;4.47;1.08;;;;;;;-145.69;100.00;71213.38;5052719;28;20231;-76
2022/09/09 03:11:56;;;;;;;8.63;1.80;;;;;;;-145.69;100.00;71219.34;5052644;28;20214;-76
2022/09/09 03:14:24;;;;;;;4.03;1.50;;;;;;;-145.69;100.00;71223.31;5052598;28;20243;-76
2022/09/09 03:16:51;;;;;;;5.18;1.42;;;;;;;-145.69;100.00;71231.28;5052593;28;20207;-76
2022/09/09 03:19:19;;;;;;;3.90;1.30;;;;;;;-145.69;100.00;71237.25;5059696;28;20233;-76
2022/09/09 03:21:46;;;;;;;2.73;1.33;;;;;;;-145.69;100.00;71255.16;5072752;28;20206;-76
2022/09/09 03:24:13;;;;;;;3.67;1.40;;;;;;;-145.69;100.00;71271.06;5072559;28;20526;-76
2022/09/09 03:26:41;;;;;;;5.90;1.52;;;;;;;-145.69;100.00;71279.03;5069644;28;20203;-76
2022/09/09 03:29:07;;;;;;;5.53;1.75;;;;;;;-145.69;100.00;71283.00;5062396;28;20444;-75
2022/09/09 03:31:35;;;;;;;6.22;2.00;;;;;;;-145.69;100.00;71279.03;5052354;28;20214;-77
2022/09/09 03:34:02;;;;;;;6.22;1.60;;;;;;;-145.69;100.00;71302.91;5052218;28;20258;-76
2022/09/09 03:36:31;;;;;;;6.32;1.95;;;;;;;-145.69;100.00;71306.88;5052087;28;20215;-75
2022/09/09 03:38:57;;;;;;;3.95;1.52;;;;;;;-145.69;100.00;71304.91;5049959;28;20559;-76
2022/09/09 03:41:24;;;;;;;2.67;1.60;;;;;;;-145.69;100.00;71314.84;5062173;28;20282;-76
2022/09/09 03:43:51;;;;;;;3.30;1.80;;;;;;;-145.69;100.00;71330.75;5075517;28;20199;-76
2022/09/09 03:46:17;;;;;;;8.02;1.75;;;;;;;-145.69;100.00;71340.72;5075447;28;20616;-75
2022/09/09 03:48:44;;;;;;;8.65;1.65;;;;;;;-145.69;100.00;71350.66;5075838;28;20203;-75
2022/09/09 03:51:10;;;;;;;5.13;1.70;;;;;;;-145.69;100.00;71366.56;5075651;28;20230;-76
2022/09/09 03:53:38;;;;;;;6.67;1.60;;;;;;;-145.69;100.00;71378.50;5075169;28;20198;-76
2022/09/09 03:56:06;;;;;;;4.60;1.80;;;;;;;-145.69;100.00;71382.50;5074288;28;20226;-77
2022/09/09 03:58:35;;;;;;;6.03;2.30;;;;;;;-145.69;100.00;71374.53;5074598;28;20202;-76
2022/09/09 04:01:04;;;;;;;9.47;2.50;;;;;;;-145.69;100.00;71376.53;5075694;28;20198;-76
2022/09/09 04:03:32;;;;;;;8.13;2.00;;;;;;;-145.69;100.00;71384.47;5075833;28;20199;-76
2022/09/09 04:06:01;;;;;;;3.17;1.83;;;;;;;-145.69;100.00;71386.47;5075827;28;20214;-77
2022/09/09 04:08:28;;;;;;;7.27;2.30;;;;;;;-145.69;100.00;71382.50;5075262;28;20593;-76
2022/09/09 04:10:57;;;;;;;8.87;2.30;;;;;;;-145.69;100.00;71392.44;5073809;28;20195;-76
2022/09/09 04:13:26;;;;;;;6.60;2.17;;;;;;;-145.69;100.00;71398.41;5075783;28;20523;-76
2022/09/09 04:15:54;;;;;;;7.30;1.93;;;;;;;-145.69;100.00;71402.41;5075238;28;20237;-76
2022/09/09 04:18:20;;;;;;;7.10;2.63;;;;;;;-145.69;100.00;71388.47;5075778;28;20199;-76
2022/09/09 04:20:48;;;;;;;12.73;2.97;;;;;;;-145.69;100.00;71378.50;5075497;28;20207;-76
2022/09/09 04:23:15;;;;;;;7.70;3.00;;;;;;;-145.69;100.00;71370.56;5075238;28;20724;-76
2022/09/09 04:25:46;;;;;;;8.53;2.60;;;;;;;-145.69;100.00;71364.59;5075284;28;20207;-77
2022/09/09 04:28:14;;;;;;;8.47;2.87;;;;;;;-145.69;100.00;71356.63;5075107;28;20264;-76
2022/09/09 04:30:41;;;;;;;4.53;2.47;;;;;;;-145.69;100.00;71354.63;5075406;28;20256;-75
2022/09/09 04:33:08;;;;;;;9.97;2.80;;;;;;;-145.69;100.00;71358.63;5075292;28;20202;-76
2022/09/09 04:35:34;;;;;;;7.43;2.83;;;;;;;-145.69;100.00;71342.69;5075194;28;20227;-76
2022/09/09 04:38:02;;;;;;;10.87;2.60;;;;;;;-145.69;100.00;71340.72;5075141;28;20240;-76
2022/09/09 04:40:29;;;;;;;9.43;2.90;;;;;;;-145.69;100.00;71338.72;5074777;28;20249;-75
2022/09/09 04:42:55;;;;;;;8.55;3.72;;;;;;;-145.69;100.00;71338.72;5074728;28;20442;-77
2022/09/09 04:45:23;;;;;;;11.33;2.90;;;;;;;-145.69;100.00;71332.75;5074846;28;20199;-77
2022/09/09 04:47:50;;;;;;;10.60;2.97;;;;;;;-145.69;100.00;71328.78;5073777;28;20202;-77
2022/09/09 04:50:16;;;;;;;7.83;3.30;;;;;;;-145.69;100.00;71320.81;5056786;28;20227;-77
2022/09/09 04:52:43;;;;;;;6.43;2.93;;;;;;;-145.69;100.00;71324.78;5054606;28;20200;-76
2022/09/09 04:55:10;;;;;;;10.23;2.57;;;;;;;-145.69;100.00;71328.78;5054559;28;20301;-75
2022/09/09 04:57:36;;;;;;;8.37;3.07;;;;;;;-145.69;100.00;71340.72;5054778;28;20231;-77
2022/09/09 05:00:04;;;;;;;7.93;2.83;;;;;;;-145.69;100.00;71338.72;5054866;28;20195;-78
2022/09/09 05:02:33;;;;;;;9.57;3.43;;;;;;;-145.69;100.00;71326.78;5054723;28;20210;-75
2022/09/09 05:04:59;;;;;;;7.47;2.63;;;;;;;-145.69;100.00;71314.84;5054593;28;20249;-75
2022/09/09 05:07:28;;;;;;;6.47;3.00;;;;;;;-145.69;100.00;71318.81;5054569;28;20201;-77
2022/09/09 05:09:55;;;;;;;10.23;3.67;;;;;;;-145.69;100.00;71322.81;5062560;28;20661;-76
2022/09/09 05:12:22;;;;;;;9.02;3.60;;;;;;;-145.69;100.00;71326.78;5073404;28;20438;-75
2022/09/09 05:14:48;;;;;;;6.40;2.50;;;;;;;-145.69;100.00;71332.75;5073099;28;20230;-75
2022/09/09 05:17:16;;;;;;;9.10;3.10;;;;;;;-145.69;100.00;71326.78;5073109;28;20210;-76
2022/09/09 05:19:43;;;;;;;8.18;3.10;;;;;;;-145.69;100.00;71320.81;5073373;28;20214;-76
2022/09/09 05:22:11;;;;;;;10.47;3.20;;;;;;;-145.69;100.00;71316.84;5073079;28;20430;-76
2022/09/09 05:24:38;;;;;;;9.45;3.20;;;;;;;-145.69;100.00;71294.94;5074193;28;20660;-75
2022/09/09 05:27:05;;;;;;;8.35;3.17;;;;;;;-145.69;100.00;71283.00;5074244;28;20199;-77
2022/09/09 05:29:33;;;;;;;6.90;2.92;;;;;;;-145.69;100.00;71288.97;5073796;28;20225;-76
2022/09/09 05:31:59;;;;;;;6.23;2.90;;;;;;;-145.69;100.00;71292.94;5074074;28;20588;-76
2022/09/09 05:34:26;;;;;;;10.37;3.20;;;;;;;-145.69;100.00;71286.97;5073896;28;20237;-76
2022/09/09 05:36:53;;;;;;;10.27;3.00;;;;;;;-145.69;100.00;71275.03;5073945;28;20202;-76
2022/09/09 05:39:20;;;;;;;6.80;3.10;;;;;;;-145.69;100.00;71265.09;5073702;28;20669;-76
2022/09/09 05:41:46;;;;;;;9.70;3.00;;;;;;;-145.69;100.00;71263.09;5073922;28;20563;-77
2022/09/09 05:44:13;;;;;;;6.97;2.45;;;;;;;-145.69;100.00;71259.13;5073794;28;20549;-76
2022/09/09 05:46:39;;;;;;;7.72;2.92;;;;;;;-145.69;100.00;71259.13;5073775;28;20202;-76
2022/09/09 05:49:06;;;;;;;11.23;3.30;;;;;;;-145.69;100.00;71245.19;5073719;28;20206;-76
2022/09/09 05:51:32;;;;;;;11.45;2.97;;;;;;;-145.69;100.00;71237.25;5073710;28;20252;-77
2022/09/09 05:54:00;;;;;;;7.57;3.47;;;;;;;-145.69;100.00;71221.31;5070876;28;20735;-76
2022/09/09 05:56:28;;;;;;;8.02;3.15;;;;;;;-145.69;100.00;71207.38;5073312;28;20230;-75
2022/09/09 05:58:55;;;;;;;7.50;3.15;;;;;;;-145.69;100.00;71193.47;5073527;28;20249;-76
2022/09/09 06:01:24;;;;;;;6.50;2.40;;;;;;;-145.69;100.00;71181.53;5073469;28;20293;-76
2022/09/09 06:03:51;;;;;;;7.33;2.50;;;;;;;-145.69;100.00;71171.56;5072796;28;20207;-76
2022/09/09 06:06:21;;;;;;;5.50;2.72;;;;;;;-145.69;100.00;71167.59;5073374;28;20207;-75
2022/09/09 06:08:48;;;;;;;5.18;2.20;;;;;;;-145.69;100.00;71151.69;5073177;28;20198;-76
2022/09/09 06:11:18;;;;;;;6.60;2.30;;;;;;;-145.69;100.00;71129.78;5074095;28;20202;-76
2022/09/09 06:13:45;;;;;;;3.08;2.10;;;;;;;-145.69;100.00;71139.75;5073432;28;20195;-75
2022/09/09 06:16:14;;;;;;;7.93;1.80;;;;;;;-145.69;100.00;71135.75;5073314;28;20237;-76
2022/09/09 06:18:41;;;;;;;4.78;2.00;;;;;;;-145.69;100.00;71115.88;5073212;28;20203;-76
2022/09/09 06:21:12;;;;;;;5.00;2.10;;;;;;;-145.69;100.00;71111.88;5073337;28;20298;-76
2022/09/09 06:23:41;;;;;;;7.07;1.90;;;;;;;-145.69;100.00;71095.97;5073351;28;20601;-76
2022/09/09 06:26:10;;;;;;;5.95;1.80;;;;;;;-145.69;100.00;71084.03;5073167;28;20290;-76
2022/09/09 06:28:38;;;;;;;4.40;1.58;;;;;;;-145.69;100.00;71068.13;5073185;28;20260;-76
2022/09/09 06:31:06;;;;;;;6.38;1.50;;;;;;;-145.69;100.00;71072.09;5072951;28;20199;-75
2022/09/09 06:33:34;;;;;;;3.83;1.80;;;;;;;-145.69;100.00;71072.09;5072895;28;20557;-76
2022/09/09 06:36:02;;;;;;;5.60;1.67;;;;;;;-145.69;100.00;71066.13;5073066;28;20600;-76
2022/09/09 06:38:28;;;;;;;5.50;1.40;;;;;;;-145.69;100.00;71064.13;5072829;28;20187;-75
2022/09/09 06:40:58;;;;;;;3.40;1.33;;;;;;;-145.69;100.00;71040.25;5073218;28;20342;-76
2022/09/09 06:43:25;;;;;;;5.35;1.50;;;;;;;-145.69;100.00;71042.25;5072826;28;20234;-76
2022/09/09 06:45:58;;;;;;;5.78;1.58;;;;;;;-145.69;100.00;71030.31;5072791;28;20206;-75
2022/09/09 06:48:25;;;;;;;3.35;1.23;;;;;;;-145.69;100.00;71006.44;5073001;28;20205;-75
2022/09/09 06:50:52;;;;;;;4.10;1.25;;;;;;;-145.69;100.00;70980.56;5058060;28;20235;-77
2022/09/09 06:53:20;;;;;;;7.50;1.27;;;;;;;-145.69;100.00;70992.50;5052676;28;20617;-77
2022/09/09 06:55:47;;;;;;;5.38;1.20;;;;;;;-145.69;100.00;70944.75;5049332;28;20223;-76
2022/09/09 06:58:14;;;;;;;4.88;1.33;;;;;;;-145.69;100.00;70940.78;5050878;28;20249;-76
2022/09/09 07:00:40;;;;;;;3.92;1.20;;;;;;;-145.69;100.00;70944.75;5052605;28;20195;-76
2022/09/09 07:03:10;;;;;;;6.45;1.65;;;;;;;-145.69;100.00;70946.75;5052599;28;20199;-75
2022/09/09 07:05:37;;;;;;;5.35;1.25;;;;;;;-145.69;100.00;70942.75;5052424;28;20199;-75
2022/09/09 07:08:04;;;;;;;5.90;1.23;;;;;;;-145.69;100.00;70922.88;5058651;28;20205;-75
2022/09/09 07:10:30;;;;;;;6.43;1.33;;;;;;;-145.69;100.00;70912.91;5071039;28;20195;-76
2022/09/09 07:12:57;;;;;;;1.92;0.90;;;;;;;-145.69;100.00;70891.03;5071466;28;20604;-76
2022/09/09 07:15:24;;;;;;;6.00;1.30;;;;;;;-145.69;100.00;70904.97;5073532;28;20279;-76
2022/09/09 07:17:52;;;;;;;6.38;1.10;;;;;;;-145.69;100.00;70920.88;5076646;28;20198;-75
2022/09/09 07:20:20;;;;;;;7.47;1.10;;;;;;;-145.69;100.00;70930.81;5076634;28;20202;-75
2022/09/09 07:22:46;;;;;;;4.25;1.30;;;;;;;-145.69;100.00;70936.78;5076508;28;20202;-76
2022/09/09 07:25:14;;;;;;;5.78;1.38;;;;;;;-145.69;100.00;70958.69;5076221;28;20282;-75
2022/09/09 07:27:40;;;;;;;7.38;1.30;;;;;;;-145.69;100.00;70968.63;5076591;28;20203;-75
2022/09/09 07:30:08;;;;;;;2.78;1.10;;;;;;;-145.69;100.00;70954.69;5076381;28;20195;-75
2022/09/09 07:32:35;;;;;;;2.15;1.05;;;;;;;-145.69;100.00;70944.75;5076424;28;20195;-75
2022/09/09 07:35:01;;;;;;;4.80;1.27;;;;;;;-145.69;100.00;70956.69;5076099;28;20653;-75
2022/09/09 07:37:32;;;;;;;6.03;1.65;;;;;;;-145.69;100.00;70976.59;5076114;28;20198;-76
2022/09/09 07:39:58;;;;;;;4.18;1.13;;;;;;;-145.69;100.00;70992.50;5075212;28;20199;-76
2022/09/09 07:42:27;;;;;;;4.57;1.10;;;;;;;-145.69;100.00;70996.47;5076314;28;20194;-76
2022/09/09 07:44:54;;;;;;;4.60;1.17;;;;;;;-145.69;100.00;70958.69;5076191;28;20561;-76
2022/09/09 07:47:21;;;;;;;3.05;0.90;;;;;;;-145.69;100.00;70908.94;5075960;28;20653;-76
2022/09/09 07:49:49;;;;;;;6.28;1.20;;;;;;;-145.69;100.00;70908.94;5075853;28;20249;-76
2022/09/09 07:52:16;;;;;;;5.85;1.42;;;;;;;-145.69;100.00;70893.03;5071618;28;20222;-76
2022/09/09 07:54:45;;;;;;;7.93;1.40;;;;;;;-145.69;100.00;70889.03;5073753;28;20206;-76
2022/09/09 07:57:15;;;;;;;5.63;1.55;;;;;;;-145.69;100.00;70928.84;5075391;28;20223;-76
2022/09/09 07:59:41;;;;;;;5.20;1.50;;;;;;;-145.69;100.00;70914.91;5075938;28;20195;-75
2022/09/09 08:02:10;;;;;;;4.85;1.00;;;;;;;-145.69;100.00;70930.81;5073984;28;20202;-75
2022/09/09 08:04:37;;;;;;;2.42;1.08;;;;;;;-145.69;100.00;70934.81;5074394;28;20230;-75
2022/09/09 08:07:04;;;;;;;4.63;1.17;;;;;;;-145.69;100.00;70918.88;5074115;28;20669;-75
2022/09/09 08:09:32;;;;;;;5.28;1.60;;;;;;;-145.69;100.00;70877.09;5074828;28;20209;-74
2022/09/09 08:12:01;;;;;;;5.45;1.20;;;;;;;-145.69;100.00;70825.38;5074100;28;20202;-75
2022/09/09 08:14:27;;;;;;;3.88;1.08;;;;;;;-145.69;100.00;70789.56;5074870;28;20199;-75
2022/09/09 08:16:54;;;;;;;4.22;1.10;;;;;;;-145.69;100.00;70765.69;5074741;28;20593;-75
2022/09/09 08:19:21;;;;;;;6.57;1.05;;;;;;;-145.69;100.00;70773.66;5075302;28;20249;-75
2022/09/09 08:21:49;;;;;;;4.30;0.95;;;;;;;-145.69;100.00;70775.63;5074515;28;20442;-75
2022/09/09 08:24:19;;;;;;;3.42;1.10;;;;;;;-145.69;100.00;70765.69;5075285;28;20275;-75
2022/09/09 08:26:48;;;;;;;3.17;1.00;;;;;;;-145.69;100.00;70765.69;5074879;28;20234;-74
2022/09/09 08:29:17;;;;;;;2.63;1.02;;;;;;;-145.69;100.00;70737.84;5075234;28;20205;-74
2022/09/09 08:31:46;;;;;;;2.03;0.93;;;;;;;-145.69;100.00;70765.69;5075016;28;20203;-74
2022/09/09 08:34:13;;;;;;;3.25;0.90;;;;;;;-145.69;100.00;70787.56;5075104;28;20289;-74
2022/09/09 08:36:43;;;;;;;5.00;0.85;;;;;;;-145.69;100.00;70809.47;5075317;28;20279;-74
2022/09/09 08:39:14;;;;;;;4.10;0.85;;;;;;;-145.69;100.00;70811.44;5075161;28;20199;-77
2022/09/09 08:41:55;;;;;;;3.67;0.90;;;;;;;-145.69;100.00;70825.38;5075208;28;20202;-75
2022/09/09 08:44:36;;;;;;;1.95;0.70;;;;;;;-145.69;100.00;70823.38;5074933;28;20230;-74
2022/09/09 08:47:12;;;;;;;4.93;0.95;;;;;;;-145.69;100.00;70805.47;5073139;28;20540;-74
2022/09/09 08:50:09;;;;;;;3.95;0.70;;;;;;;-145.69;100.00;70811.44;5053184;28;20863;-74
2022/09/09 08:52:40;;;;;;;3.65;1.00;;;;;;;-145.69;100.00;70829.34;5054737;28;20196;-77
2022/09/09 08:55:22;;;;;;;5.22;0.85;;;;;;;-145.69;100.00;70809.47;5062225;28;20518;-75
2022/09/09 08:57:51;;;;;;;5.60;0.98;;;;;;;-145.69;100.00;70743.81;5074691;28;20653;-74
2022/09/09 09:00:19;;;;;;;3.50;0.70;;;;;;;-145.69;100.00;70747.78;5074128;28;20222;-76
2022/09/09 09:02:54;;;;;;;3.90;0.80;;;;;;;-145.69;100.00;70735.84;5073226;28;20245;-75
2022/09/09 09:05:29;;;;;;;3.60;0.93;;;;;;;-145.69;95.75;70741.81;5074515;28;20198;-75
2022/09/09 09:08:06;;;;;;;4.68;1.00;;;;;;;-145.69;95.97;70775.63;5073379;28;20493;-76
2022/09/09 09:10:46;;;;;;;4.65;1.02;;;;;;;-145.69;100.00;70777.63;5074067;28;20205;-75
2022/09/09 09:13:16;;;;;;;7.03;0.90;;;;;;;-145.69;97.33;70817.41;5074523;28;20598;-75
2022/09/09 09:15:48;;;;;;;3.53;0.82;;;;;;;-145.69;100.00;70839.31;5074302;28;20293;-76
2022/09/09 09:18:18;;;;;;;5.25;0.85;;;;;;;-145.69;100.00;70851.25;5060097;28;20257;-75
2022/09/09 09:20:53;;;;;;;7.15;1.10;;;;;;;-145.69;100.00;70839.31;5054352;28;20261;-75
2022/09/09 09:23:24;;;;;;;5.70;1.02;;;;;;;-145.69;100.00;70761.72;5054125;28;20593;-75
2022/09/09 09:25:53;;;;;;;6.03;1.08;;;;;;;-145.69;96.03;70751.75;5054087;28;20294;-75
2022/09/09 09:28:24;;;;;;;4.47;0.93;;;;;;;-145.69;100.00;70777.63;5053999;28;20196;-75
2022/09/09 09:30:57;;;;;;;3.72;0.98;;;;;;;-145.69;93.32;70767.69;5065641;28;20191;-75
2022/09/09 09:33:28;;;;;;;4.00;0.70;;;;;;;-145.69;95.71;70723.91;5073752;28;20253;-75
2022/09/09 09:35:55;;;;;;;4.80;1.30;;;;;;;-145.69;91.59;70634.38;5073639;28;20214;-76
2022/09/09 09:38:23;;;;;;;3.30;0.82;;;;;;;-145.69;90.35;70632.38;5072931;28;20205;-77
2022/09/09 09:40:51;;;;;;;7.25;1.00;;;;;;;-145.69;95.20;70610.50;5073398;28;20685;-76
2022/09/09 09:43:22;;;;;;;6.38;1.38;;;;;;;-145.69;87.11;70608.53;5074088;28;20195;-75
2022/09/09 09:45:49;;;;;;;1.90;1.00;;;;;;;-145.69;84.24;70584.66;5073981;28;20199;-74
2022/09/09 09:48:17;;;;;;;4.15;1.08;;;;;;;-145.69;84.36;70578.69;5073813;28;20210;-75
2022/09/09 09:50:50;;;;;;;2.45;0.77;;;;;;;-145.69;86.01;70592.59;5073358;28;20234;-75
2022/09/09 09:53:26;;;;;;;4.18;0.70;;;;;;;-145.69;85.44;70586.63;5073570;28;20676;-76
2022/09/09 09:55:59;;;;;;;6.28;0.77;;;;;;;-145.69;85.48;70618.47;5073597;28;20198;-76
2022/09/09 09:58:29;;;;;;;1.90;0.68;;;;;;;-145.69;86.73;70678.16;5073192;28;20608;-75
2022/09/09 10:00:59;;;;;;;4.93;0.90;;;;;;;-145.69;85.09;70713.97;5073262;28;20199;-75
2022/09/09 10:03:30;;;;;;;4.63;0.70;;;;;;;-145.69;87.68;70711.97;5072941;28;20202;-78
2022/09/09 10:05:57;;;;;;;6.93;0.90;;;;;;;-145.69;87.01;70690.09;5073780;28;20207;-76
2022/09/09 10:08:25;;;;;;;4.60;0.75;;;;;;;-145.69;86.31;70692.06;5073173;28;20199;-75
2022/09/09 10:11:06;;;;;;;7.60;0.70;;;;;;;-145.69;83.80;70700.03;5073403;28;20198;-75
2022/09/09 10:13:40;;;;;;;2.55;0.70;;;;;;;-145.69;81.84;70737.84;5073878;28;20313;-75
2022/09/09 10:16:26;;;;;;;4.05;0.60;;;;;;;-145.69;85.91;70771.66;5076755;28;20202;-75
2022/09/09 10:19:00;;;;;;;5.82;0.63;;;;;;;-145.69;92.52;70739.81;5075312;28;20205;-77
2022/09/09 10:21:43;;;;;;;2.92;0.85;;;;;;;-145.69;86.27;70709.97;5073248;28;20651;-76
2022/09/09 10:24:32;;;;;;;2.53;0.63;;;;;;;-145.69;81.57;70696.06;5073221;28;20706;-76
2022/09/09 10:27:06;;;;;;;3.42;0.80;;;;;;;-145.69;80.27;70708.00;5073115;28;20221;-76
2022/09/09 10:29:45;;;;;;;5.93;0.80;;;;;;;-145.69;81.03;70682.13;5072968;28;20612;-76
2022/09/09 10:32:41;;;;;;;2.50;0.70;;;;;;;-145.69;83.62;70680.13;5073184;28;20207;-76
2022/09/09 10:35:24;;;;;;;3.20;0.80;;;;;;;-145.69;82.35;70642.34;5072888;28;20232;-75
2022/09/09 10:38:14;;;;;;;7.03;1.20;;;;;;;-145.69;78.42;70620.44;5072998;28;20237;-76
2022/09/09 10:40:51;;;;;;;8.70;0.77;;;;;;;-145.69;79.93;70608.53;5072534;28;20226;-77
2022/09/09 10:43:29;;;;;;;2.50;0.70;;;;;;;-145.69;76.88;70618.47;5072854;28;20199;-75
2022/09/09 10:46:08;;;;;;;2.03;0.50;;;;;;;-145.69;83.23;70590.63;5072747;28;20218;-78
2022/09/09 10:48:56;;;;;;;2.13;0.57;;;;;;;-145.69;76.58;70602.56;5069861;28;20226;-75
2022/09/09 10:51:33;;;;;;;3.38;0.93;;;;;;;-145.69;79.04;70598.56;5072556;28;20276;-76
2022/09/09 10:54:14;;;;;;;2.65;0.68;;;;;;;-145.69;70.93;70608.53;5073068;28;20403;-76
2022/09/09 10:56:50;;;;;;;2.28;0.70;;;;;;;-145.69;73.55;70636.38;5072719;28;20226;-76
2022/09/09 10:59:23;;;;;;;1.75;0.52;;;;;;;-145.69;80.42;70648.31;5072648;28;20289;-78
2022/09/09 11:01:54;;;;;;;3.95;0.65;;;;;;;-145.69;79.51;70614.47;5072558;28;20597;-76
2022/09/09 11:04:25;;;;;;;3.60;0.75;;;;;;;-145.69;74.21;70578.69;5072598;28;20649;-76
2022/09/09 11:06:56;;;;;;;1.33;0.55;;;;;;;-145.69;73.54;70548.84;5072596;28;20202;-79
2022/09/09 11:09:25;;;;;;;2.53;0.50;;;;;;;-145.69;75.13;70554.81;5072944;28;20206;-77
2022/09/09 11:11:55;;;;;;;2.25;0.68;;;;;;;-145.69;72.44;70584.66;5072687;28;20573;-77
2022/09/09 11:14:29;;;;;;;2.95;0.68;;;;;;;-145.69;71.94;70620.44;5072549;28;20612;-78
2022/09/09 11:17:00;;;;;;;3.20;0.60;;;;;;;-145.69;73.12;70616.47;5072585;28;20318;-76
2022/09/09 11:19:34;;;;;;;6.57;0.93;;;;;;;-145.69;78.63;70610.50;5072586;28;20289;-76
2022/09/09 11:22:03;;;;;;;2.50;0.70;;;;;;;-145.69;69.74;70608.53;5072656;28;20274;-77
2022/09/09 11:24:36;;;;;;;2.70;0.73;;;;;;;-145.69;74.66;70606.53;5072535;28;20205;-75